createdAt,value
2023-03-16T00:04:42.922Z,68.20
2023-03-16T00:14:42.154Z,68.50
2023-03-16T00:24:42.879Z,68.80
2023-03-16T00:34:44.278Z,69.20
2023-03-16T00:44:43.205Z,69.40
2023-03-16T00:54:42.915Z,69.60
2023-03-16T01:04:42.095Z,69.80
2023-03-16T01:14:41.165Z,69.90
2023-03-16T01:24:40.271Z,70.20
2023-03-16T01:34:39.813Z,70.20
2023-03-16T01:44:42.280Z,70.10
2023-03-16T01:54:42.092Z,69.90
2023-03-16T02:04:42.584Z,70.10
2023-03-16T02:14:42.589Z,70.20
2023-03-16T02:24:42.450Z,70.30
2023-03-16T02:34:41.390Z,70.30
2023-03-16T02:44:41.892Z,70.20
2023-03-16T02:54:43.055Z,70.20
2023-03-16T03:04:42.656Z,70.20
2023-03-16T03:14:42.700Z,70.30
2023-03-16T03:24:42.987Z,70.30
2023-03-16T03:34:42.656Z,70.50
2023-03-16T03:44:42.400Z,70.40
2023-03-16T03:54:43.132Z,70.40
2023-03-16T04:04:43.279Z,70.50
2023-03-16T04:14:42.712Z,70.60
2023-03-16T04:24:42.981Z,70.60
2023-03-16T04:34:43.884Z,70.60
2023-03-16T04:44:44.707Z,70.90
2023-03-16T04:54:46.005Z,71.30
2023-03-16T05:04:45.608Z,71.50
2023-03-16T05:14:59.086Z,71.70
2023-03-16T05:24:58.968Z,71.90
2023-03-16T05:34:58.589Z,72.10
2023-03-16T05:45:11.031Z,72.10
2023-03-16T05:55:10.668Z,72.10
2023-03-16T06:05:12.609Z,71.80
2023-03-16T06:15:11.264Z,71.90
2023-03-16T06:25:10.592Z,71.90
2023-03-16T06:35:10.024Z,71.60
2023-03-16T06:45:09.590Z,71.70
2023-03-16T06:55:09.677Z,71.00
2023-03-16T07:05:11.090Z,70.30
2023-03-16T07:15:10.843Z,70.20
2023-03-16T07:25:12.849Z,69.40
2023-03-16T07:35:12.403Z,69.10
2023-03-16T07:45:13.683Z,68.90
2023-03-16T07:55:12.387Z,68.60
2023-03-16T08:05:13.701Z,68.00
2023-03-16T08:15:12.928Z,67.90
2023-03-16T08:25:14.260Z,67.40
2023-03-16T08:35:14.086Z,66.70
2023-03-16T08:45:14.954Z,66.20
2023-03-16T08:55:15.122Z,65.00
2023-03-16T09:05:15.100Z,64.80
2023-03-16T09:15:14.249Z,65.10
2023-03-16T09:25:13.983Z,63.50
2023-03-16T09:35:13.153Z,63.70
2023-03-16T09:45:12.396Z,63.20
2023-03-16T09:55:11.261Z,62.90
2023-03-16T10:05:10.295Z,61.60
2023-03-16T10:15:09.409Z,60.30
2023-03-16T10:25:08.166Z,60.10
2023-03-16T10:35:07.936Z,60.90
2023-03-16T10:45:07.348Z,59.60
2023-03-16T10:55:06.247Z,58.80
2023-03-16T11:05:05.210Z,58.60
2023-03-16T11:15:07.451Z,57.80
2023-03-16T11:25:06.059Z,56.90
2023-03-16T11:35:07.306Z,56.60
2023-03-16T11:45:06.284Z,57.10
2023-03-16T11:55:05.470Z,57.90
2023-03-16T12:05:04.379Z,58.00
2023-03-16T12:15:03.476Z,56.60
2023-03-16T12:25:02.982Z,55.80
2023-03-16T12:35:02.336Z,54.80
2023-03-16T12:45:02.038Z,54.50
2023-03-16T12:55:01.239Z,53.90
2023-03-16T13:05:00.235Z,53.40
2023-03-16T13:14:59.632Z,52.90
2023-03-16T13:24:58.897Z,53.10
2023-03-16T13:34:58.412Z,52.00
2023-03-16T13:44:58.044Z,51.90
2023-03-16T13:54:57.585Z,52.20
2023-03-16T14:04:56.403Z,51.60
2023-03-16T14:14:55.471Z,52.20
2023-03-16T14:24:54.632Z,50.90
2023-03-16T14:34:53.639Z,50.80
2023-03-16T14:44:52.590Z,50.70
2023-03-16T14:54:51.947Z,51.00
2023-03-16T15:04:50.515Z,50.70
2023-03-16T15:15:07.613Z,50.80
2023-03-16T15:25:07.781Z,49.80
2023-03-16T15:35:07.007Z,50.70
2023-03-16T15:45:05.646Z,51.20
2023-03-16T15:55:06.429Z,51.60
2023-03-16T16:05:05.672Z,51.80
2023-03-16T16:15:04.515Z,52.00
2023-03-16T16:25:04.856Z,52.20
2023-03-16T16:35:05.022Z,53.10
2023-03-16T16:45:04.583Z,53.70
2023-03-16T16:55:03.678Z,54.30
2023-03-16T17:05:02.902Z,55.00
2023-03-16T17:15:01.646Z,55.70
2023-03-16T17:25:01.419Z,56.50
2023-03-16T17:35:00.599Z,57.30
2023-03-16T17:44:59.922Z,57.70
2023-03-16T17:54:58.829Z,58.10
2023-03-16T18:04:59.574Z,58.60
2023-03-16T18:14:58.569Z,58.90
2023-03-16T18:24:57.657Z,59.20
2023-03-16T18:34:56.708Z,59.40
2023-03-16T18:44:55.747Z,59.60
2023-03-16T18:54:55.222Z,60.00
2023-03-16T19:04:54.555Z,60.00
2023-03-16T19:14:53.451Z,60.00
2023-03-16T19:24:52.552Z,60.20
2023-03-16T19:34:51.581Z,60.40
2023-03-16T19:44:50.621Z,60.60
2023-03-16T19:54:49.582Z,60.60
2023-03-16T20:04:48.787Z,60.90
2023-03-16T20:14:47.578Z,61.00
2023-03-16T20:24:48.131Z,61.10
2023-03-16T20:34:47.755Z,61.50
2023-03-16T20:44:47.247Z,61.70
2023-03-16T20:54:47.098Z,61.90
2023-03-16T21:04:45.557Z,62.20
2023-03-16T21:14:46.631Z,62.20
2023-03-16T21:24:45.526Z,62.10
2023-03-16T21:34:44.666Z,62.10
2023-03-16T21:44:43.707Z,62.30
2023-03-16T21:54:42.739Z,62.40
2023-03-16T22:04:41.889Z,62.50
2023-03-16T22:14:40.618Z,62.50
2023-03-16T22:24:39.732Z,62.50
2023-03-16T22:34:38.605Z,62.50
2023-03-16T22:44:37.676Z,62.50
2023-03-16T22:54:36.632Z,62.60
2023-03-16T23:04:35.705Z,62.60
2023-03-16T23:14:34.810Z,62.70
2023-03-16T23:24:33.718Z,62.80
2023-03-16T23:34:32.710Z,62.80
2023-03-16T23:44:31.944Z,62.80
2023-03-16T23:54:30.713Z,63.00
